sensor_id;sensor_type;location;lat;lon;timestamp;temperature;humidity
68804;SHT31;55787;52.678;13.314;2024-03-02T00:01:26;5.10;99.63
68804;SHT31;55787;52.678;13.314;2024-03-02T00:03:52;5.08;99.66
68804;SHT31;55787;52.678;13.314;2024-03-02T00:06:20;5.12;99.65
68804;SHT31;55787;52.678;13.314;2024-03-02T00:08:48;5.17;99.73
68804;SHT31;55787;52.678;13.314;2024-03-02T00:11:15;5.20;99.85
68804;SHT31;55787;52.678;13.314;2024-03-02T00:13:42;5.22;99.86
68804;SHT31;55787;52.678;13.314;2024-03-02T00:16:10;5.24;99.75
68804;SHT31;55787;52.678;13.314;2024-03-02T00:18:37;5.25;99.80
68804;SHT31;55787;52.678;13.314;2024-03-02T00:21:06;5.32;99.91
68804;SHT31;55787;52.678;13.314;2024-03-02T00:23:36;5.28;99.81
68804;SHT31;55787;52.678;13.314;2024-03-02T00:26:03;5.34;99.73
68804;SHT31;55787;52.678;13.314;2024-03-02T00:28:32;5.35;99.80
68804;SHT31;55787;52.678;13.314;2024-03-02T00:31:09;5.36;99.72
68804;SHT31;55787;52.678;13.314;2024-03-02T00:33:46;5.41;99.75
68804;SHT31;55787;52.678;13.314;2024-03-02T00:36:22;5.42;99.80
68804;SHT31;55787;52.678;13.314;2024-03-02T00:38:52;5.45;99.80
68804;SHT31;55787;52.678;13.314;2024-03-02T00:41:24;5.46;99.84
68804;SHT31;55787;52.678;13.314;2024-03-02T00:43:58;5.48;99.81
68804;SHT31;55787;52.678;13.314;2024-03-02T00:46:27;5.49;99.82
68804;SHT31;55787;52.678;13.314;2024-03-02T00:48:57;5.49;99.78
68804;SHT31;55787;52.678;13.314;2024-03-02T00:51:27;5.53;99.85
68804;SHT31;55787;52.678;13.314;2024-03-02T00:53:55;5.55;99.90
68804;SHT31;55787;52.678;13.314;2024-03-02T00:56:24;5.56;99.97
68804;SHT31;55787;52.678;13.314;2024-03-02T00:58:51;5.59;99.99
68804;SHT31;55787;52.678;13.314;2024-03-02T01:01:18;5.60;99.92
68804;SHT31;55787;52.678;13.314;2024-03-02T01:03:46;5.66;99.92
68804;SHT31;55787;52.678;13.314;2024-03-02T01:06:13;5.65;99.97
68804;SHT31;55787;52.678;13.314;2024-03-02T01:08:39;5.69;99.98
68804;SHT31;55787;52.678;13.314;2024-03-02T01:11:06;5.74;99.99
68804;SHT31;55787;52.678;13.314;2024-03-02T01:13:33;5.77;99.99
68804;SHT31;55787;52.678;13.314;2024-03-02T01:16:00;5.79;99.99
68804;SHT31;55787;52.678;13.314;2024-03-02T01:18:27;5.80;99.99
68804;SHT31;55787;52.678;13.314;2024-03-02T01:20:53;5.83;99.99
68804;SHT31;55787;52.678;13.314;2024-03-02T01:23:23;5.86;99.99
68804;SHT31;55787;52.678;13.314;2024-03-02T01:25:51;5.90;99.99
68804;SHT31;55787;52.678;13.314;2024-03-02T01:28:19;5.90;99.99
68804;SHT31;55787;52.678;13.314;2024-03-02T01:30:47;5.94;99.99
68804;SHT31;55787;52.678;13.314;2024-03-02T01:33:13;5.99;99.99
68804;SHT31;55787;52.678;13.314;2024-03-02T01:35:40;6.00;99.99
68804;SHT31;55787;52.678;13.314;2024-03-02T01:38:07;6.02;99.99
68804;SHT31;55787;52.678;13.314;2024-03-02T01:40:34;6.06;99.99
68804;SHT31;55787;52.678;13.314;2024-03-02T01:43:01;6.04;99.99
68804;SHT31;55787;52.678;13.314;2024-03-02T01:45:28;6.06;99.99
68804;SHT31;55787;52.678;13.314;2024-03-02T01:47:55;6.04;99.99
68804;SHT31;55787;52.678;13.314;2024-03-02T01:50:31;6.09;99.99
68804;SHT31;55787;52.678;13.314;2024-03-02T01:52:58;6.11;99.99
68804;SHT31;55787;52.678;13.314;2024-03-02T01:55:25;6.10;99.99
68804;SHT31;55787;52.678;13.314;2024-03-02T01:57:53;6.14;99.99
68804;SHT31;55787;52.678;13.314;2024-03-02T02:00:21;6.13;99.99
68804;SHT31;55787;52.678;13.314;2024-03-02T02:02:48;6.16;99.99
68804;SHT31;55787;52.678;13.314;2024-03-02T02:05:15;6.20;99.99
68804;SHT31;55787;52.678;13.314;2024-03-02T02:07:43;6.18;99.99
68804;SHT31;55787;52.678;13.314;2024-03-02T02:10:10;6.20;99.99
68804;SHT31;55787;52.678;13.314;2024-03-02T02:12:37;6.18;99.99
68804;SHT31;55787;52.678;13.314;2024-03-02T02:15:27;6.21;99.99
68804;SHT31;55787;52.678;13.314;2024-03-02T02:17:55;6.17;99.99
68804;SHT31;55787;52.678;13.314;2024-03-02T02:20:22;6.16;99.99
68804;SHT31;55787;52.678;13.314;2024-03-02T02:22:56;6.14;99.99
68804;SHT31;55787;52.678;13.314;2024-03-02T02:25:23;6.14;99.99
68804;SHT31;55787;52.678;13.314;2024-03-02T02:27:50;6.14;99.99
68804;SHT31;55787;52.678;13.314;2024-03-02T02:30:21;6.13;99.99
68804;SHT31;55787;52.678;13.314;2024-03-02T02:32:48;6.16;99.99
68804;SHT31;55787;52.678;13.314;2024-03-02T02:35:15;6.16;99.99
68804;SHT31;55787;52.678;13.314;2024-03-02T02:37:43;6.18;99.99
68804;SHT31;55787;52.678;13.314;2024-03-02T02:40:10;6.18;99.99
68804;SHT31;55787;52.678;13.314;2024-03-02T02:42:37;6.18;99.99
68804;SHT31;55787;52.678;13.314;2024-03-02T02:45:05;6.20;99.99
68804;SHT31;55787;52.678;13.314;2024-03-02T02:47:31;6.23;99.99
68804;SHT31;55787;52.678;13.314;2024-03-02T02:50:06;6.24;99.99
68804;SHT31;55787;52.678;13.314;2024-03-02T02:52:34;6.27;99.99
68804;SHT31;55787;52.678;13.314;2024-03-02T02:55:03;6.31;99.99
68804;SHT31;55787;52.678;13.314;2024-03-02T02:57:33;6.31;99.99
68804;SHT31;55787;52.678;13.314;2024-03-02T03:00:09;6.32;99.99
68804;SHT31;55787;52.678;13.314;2024-03-02T03:02:46;6.35;99.99
68804;SHT31;55787;52.678;13.314;2024-03-02T03:05:14;6.38;99.99
68804;SHT31;55787;52.678;13.314;2024-03-02T03:07:42;6.38;99.99
68804;SHT31;55787;52.678;13.314;2024-03-02T03:10:10;6.42;99.99
68804;SHT31;55787;52.678;13.314;2024-03-02T03:12:37;6.41;99.99
68804;SHT31;55787;52.678;13.314;2024-03-02T03:15:04;6.48;99.99
68804;SHT31;55787;52.678;13.314;2024-03-02T03:17:31;6.45;99.99
68804;SHT31;55787;52.678;13.314;2024-03-02T03:19:58;6.54;99.99
68804;SHT31;55787;52.678;13.314;2024-03-02T03:22:25;6.64;99.99
68804;SHT31;55787;52.678;13.314;2024-03-02T03:24:51;6.69;99.99
68804;SHT31;55787;52.678;13.314;2024-03-02T03:27:18;6.79;99.99
68804;SHT31;55787;52.678;13.314;2024-03-02T03:29:46;6.91;99.99
68804;SHT31;55787;52.678;13.314;2024-03-02T03:32:12;7.07;99.99
68804;SHT31;55787;52.678;13.314;2024-03-02T03:34:39;7.09;99.99
68804;SHT31;55787;52.678;13.314;2024-03-02T03:37:06;7.16;99.99
68804;SHT31;55787;52.678;13.314;2024-03-02T03:39:34;7.24;99.99
68804;SHT31;55787;52.678;13.314;2024-03-02T03:42:02;7.23;99.99
68804;SHT31;55787;52.678;13.314;2024-03-02T03:44:29;7.22;99.99
68804;SHT31;55787;52.678;13.314;2024-03-02T03:46:56;7.22;99.99
68804;SHT31;55787;52.678;13.314;2024-03-02T03:49:22;7.26;99.99
68804;SHT31;55787;52.678;13.314;2024-03-02T03:51:49;7.22;99.99
68804;SHT31;55787;52.678;13.314;2024-03-02T03:54:16;7.23;99.99
68804;SHT31;55787;52.678;13.314;2024-03-02T03:56:42;7.26;99.99
68804;SHT31;55787;52.678;13.314;2024-03-02T03:59:09;7.28;99.99
68804;SHT31;55787;52.678;13.314;2024-03-02T04:01:36;7.27;99.99
68804;SHT31;55787;52.678;13.314;2024-03-02T04:04:02;7.33;99.99
68804;SHT31;55787;52.678;13.314;2024-03-02T04:06:30;7.34;99.99
68804;SHT31;55787;52.678;13.314;2024-03-02T04:08:57;7.44;99.99
68804;SHT31;55787;52.678;13.314;2024-03-02T04:11:23;7.48;99.99
68804;SHT31;55787;52.678;13.314;2024-03-02T04:13:50;7.53;99.99
68804;SHT31;55787;52.678;13.314;2024-03-02T04:16:17;7.54;99.99
68804;SHT31;55787;52.678;13.314;2024-03-02T04:18:43;7.55;99.99
68804;SHT31;55787;52.678;13.314;2024-03-02T04:21:10;7.54;99.99
68804;SHT31;55787;52.678;13.314;2024-03-02T04:23:37;7.61;99.99
68804;SHT31;55787;52.678;13.314;2024-03-02T04:26:04;7.70;99.99
68804;SHT31;55787;52.678;13.314;2024-03-02T04:28:31;7.65;99.99
68804;SHT31;55787;52.678;13.314;2024-03-02T04:30:57;7.68;99.99
68804;SHT31;55787;52.678;13.314;2024-03-02T04:33:24;7.70;99.99
68804;SHT31;55787;52.678;13.314;2024-03-02T04:35:50;7.71;99.99
68804;SHT31;55787;52.678;13.314;2024-03-02T04:38:17;7.70;99.99
68804;SHT31;55787;52.678;13.314;2024-03-02T04:40:43;7.71;99.99
68804;SHT31;55787;52.678;13.314;2024-03-02T04:43:10;7.68;99.99
68804;SHT31;55787;52.678;13.314;2024-03-02T04:45:38;7.67;99.99
68804;SHT31;55787;52.678;13.314;2024-03-02T04:48:05;7.67;99.99
68804;SHT31;55787;52.678;13.314;2024-03-02T04:50:32;7.61;99.99
68804;SHT31;55787;52.678;13.314;2024-03-02T04:52:58;7.63;99.99
68804;SHT31;55787;52.678;13.314;2024-03-02T04:55:25;7.61;99.99
68804;SHT31;55787;52.678;13.314;2024-03-02T04:57:54;7.60;99.99
68804;SHT31;55787;52.678;13.314;2024-03-02T05:00:21;7.61;99.99
68804;SHT31;55787;52.678;13.314;2024-03-02T05:02:48;7.58;99.99
68804;SHT31;55787;52.678;13.314;2024-03-02T05:05:14;7.57;99.99
68804;SHT31;55787;52.678;13.314;2024-03-02T05:07:44;7.54;99.99
68804;SHT31;55787;52.678;13.314;2024-03-02T05:10:10;7.55;99.99
68804;SHT31;55787;52.678;13.314;2024-03-02T05:12:41;7.51;99.99
68804;SHT31;55787;52.678;13.314;2024-03-02T05:15:13;7.53;99.99
68804;SHT31;55787;52.678;13.314;2024-03-02T05:17:41;7.53;99.99
68804;SHT31;55787;52.678;13.314;2024-03-02T05:20:11;7.53;99.99
68804;SHT31;55787;52.678;13.314;2024-03-02T05:22:38;7.55;99.99
68804;SHT31;55787;52.678;13.314;2024-03-02T05:25:07;7.55;99.99
68804;SHT31;55787;52.678;13.314;2024-03-02T05:27:36;7.55;99.99
68804;SHT31;55787;52.678;13.314;2024-03-02T05:30:03;7.60;99.99
68804;SHT31;55787;52.678;13.314;2024-03-02T05:32:31;7.61;99.99
68804;SHT31;55787;52.678;13.314;2024-03-02T05:34:58;7.68;99.99
68804;SHT31;55787;52.678;13.314;2024-03-02T05:37:24;7.70;99.99
68804;SHT31;55787;52.678;13.314;2024-03-02T05:39:51;7.71;99.99
68804;SHT31;55787;52.678;13.314;2024-03-02T05:42:18;7.74;99.99
68804;SHT31;55787;52.678;13.314;2024-03-02T05:44:45;7.72;99.99
68804;SHT31;55787;52.678;13.314;2024-03-02T05:47:11;7.74;99.99
68804;SHT31;55787;52.678;13.314;2024-03-02T05:49:38;7.77;99.99
68804;SHT31;55787;52.678;13.314;2024-03-02T05:52:05;7.78;99.99
68804;SHT31;55787;52.678;13.314;2024-03-02T05:54:33;7.79;99.99
68804;SHT31;55787;52.678;13.314;2024-03-02T05:57:00;7.82;99.99
68804;SHT31;55787;52.678;13.314;2024-03-02T05:59:43;7.82;99.99
68804;SHT31;55787;52.678;13.314;2024-03-02T06:02:12;7.85;99.99
68804;SHT31;55787;52.678;13.314;2024-03-02T06:04:39;7.86;99.99
68804;SHT31;55787;52.678;13.314;2024-03-02T06:07:06;7.88;99.99
68804;SHT31;55787;52.678;13.314;2024-03-02T06:09:32;7.89;99.99
68804;SHT31;55787;52.678;13.314;2024-03-02T06:11:59;7.94;99.99
68804;SHT31;55787;52.678;13.314;2024-03-02T06:14:26;7.96;99.99
68804;SHT31;55787;52.678;13.314;2024-03-02T06:16:53;7.95;99.99
68804;SHT31;55787;52.678;13.314;2024-03-02T06:19:19;7.95;99.99
68804;SHT31;55787;52.678;13.314;2024-03-02T06:21:46;7.99;99.99
68804;SHT31;55787;52.678;13.314;2024-03-02T06:24:13;7.98;99.99
68804;SHT31;55787;52.678;13.314;2024-03-02T06:26:39;7.99;99.99
68804;SHT31;55787;52.678;13.314;2024-03-02T06:29:06;8.02;99.99
68804;SHT31;55787;52.678;13.314;2024-03-02T06:31:34;8.07;99.99
68804;SHT31;55787;52.678;13.314;2024-03-02T06:34:00;8.03;99.99
68804;SHT31;55787;52.678;13.314;2024-03-02T06:36:27;8.06;99.99
68804;SHT31;55787;52.678;13.314;2024-03-02T06:38:53;8.05;99.99
68804;SHT31;55787;52.678;13.314;2024-03-02T06:41:20;8.07;99.99
68804;SHT31;55787;52.678;13.314;2024-03-02T06:43:46;8.05;99.99
68804;SHT31;55787;52.678;13.314;2024-03-02T06:46:13;8.07;99.99
68804;SHT31;55787;52.678;13.314;2024-03-02T06:48:41;8.12;99.99
68804;SHT31;55787;52.678;13.314;2024-03-02T06:51:08;8.19;99.99
68804;SHT31;55787;52.678;13.314;2024-03-02T06:53:34;8.28;99.99
68804;SHT31;55787;52.678;13.314;2024-03-02T06:56:01;8.36;99.99
68804;SHT31;55787;52.678;13.314;2024-03-02T06:58:27;8.46;99.99
68804;SHT31;55787;52.678;13.314;2024-03-02T07:00:54;8.49;99.99
68804;SHT31;55787;52.678;13.314;2024-03-02T07:03:20;8.49;99.99
68804;SHT31;55787;52.678;13.314;2024-03-02T07:05:47;8.42;99.99
68804;SHT31;55787;52.678;13.314;2024-03-02T07:08:14;8.37;99.99
68804;SHT31;55787;52.678;13.314;2024-03-02T07:10:41;8.32;99.99
68804;SHT31;55787;52.678;13.314;2024-03-02T07:13:08;8.26;99.99
68804;SHT31;55787;52.678;13.314;2024-03-02T07:15:34;8.19;99.99
68804;SHT31;55787;52.678;13.314;2024-03-02T07:18:13;8.17;99.99
68804;SHT31;55787;52.678;13.314;2024-03-02T07:20:42;8.13;99.99
68804;SHT31;55787;52.678;13.314;2024-03-02T07:23:09;8.13;99.99
68804;SHT31;55787;52.678;13.314;2024-03-02T07:25:35;8.12;99.99
68804;SHT31;55787;52.678;13.314;2024-03-02T07:28:05;8.13;99.99
68804;SHT31;55787;52.678;13.314;2024-03-02T07:30:33;8.23;99.99
68804;SHT31;55787;52.678;13.314;2024-03-02T07:33:00;8.36;99.99
68804;SHT31;55787;52.678;13.314;2024-03-02T07:35:26;8.43;99.99
68804;SHT31;55787;52.678;13.314;2024-03-02T07:37:54;8.52;99.99
68804;SHT31;55787;52.678;13.314;2024-03-02T07:40:21;8.60;99.99
68804;SHT31;55787;52.678;13.314;2024-03-02T07:42:48;8.64;99.99
68804;SHT31;55787;52.678;13.314;2024-03-02T07:45:15;8.64;99.99
68804;SHT31;55787;52.678;13.314;2024-03-02T07:47:41;8.67;99.99
68804;SHT31;55787;52.678;13.314;2024-03-02T07:50:08;8.70;99.99
68804;SHT31;55787;52.678;13.314;2024-03-02T07:52:35;8.68;99.99
68804;SHT31;55787;52.678;13.314;2024-03-02T07:55:02;8.70;99.92
68804;SHT31;55787;52.678;13.314;2024-03-02T07:57:28;8.84;99.13
68804;SHT31;55787;52.678;13.314;2024-03-02T07:59:55;8.85;99.36
68804;SHT31;55787;52.678;13.314;2024-03-02T08:02:22;8.83;99.30
68804;SHT31;55787;52.678;13.314;2024-03-02T08:04:48;8.84;99.24
68804;SHT31;55787;52.678;13.314;2024-03-02T08:07:16;8.84;99.19
68804;SHT31;55787;52.678;13.314;2024-03-02T08:09:42;8.88;99.19
68804;SHT31;55787;52.678;13.314;2024-03-02T08:12:09;8.88;98.87
68804;SHT31;55787;52.678;13.314;2024-03-02T08:14:35;8.92;98.80
68804;SHT31;55787;52.678;13.314;2024-03-02T08:17:02;8.98;98.39
68804;SHT31;55787;52.678;13.314;2024-03-02T08:19:30;8.97;98.49
68804;SHT31;55787;52.678;13.314;2024-03-02T08:21:57;9.00;98.71
68804;SHT31;55787;52.678;13.314;2024-03-02T08:24:26;9.02;98.75
68804;SHT31;55787;52.678;13.314;2024-03-02T08:26:52;9.12;98.71
68804;SHT31;55787;52.678;13.314;2024-03-02T08:29:19;9.24;97.88
68804;SHT31;55787;52.678;13.314;2024-03-02T08:31:46;9.21;97.85
68804;SHT31;55787;52.678;13.314;2024-03-02T08:34:12;9.24;98.02
68804;SHT31;55787;52.678;13.314;2024-03-02T08:36:39;9.32;97.74
68804;SHT31;55787;52.678;13.314;2024-03-02T08:39:08;9.42;97.62
68804;SHT31;55787;52.678;13.314;2024-03-02T08:41:44;9.49;97.41
68804;SHT31;55787;52.678;13.314;2024-03-02T08:44:10;9.56;97.31
68804;SHT31;55787;52.678;13.314;2024-03-02T08:46:38;9.59;97.02
68804;SHT31;55787;52.678;13.314;2024-03-02T08:49:05;9.59;96.87
68804;SHT31;55787;52.678;13.314;2024-03-02T08:51:32;9.66;96.38
68804;SHT31;55787;52.678;13.314;2024-03-02T08:53:59;9.62;96.63
68804;SHT31;55787;52.678;13.314;2024-03-02T08:56:26;9.62;96.89
68804;SHT31;55787;52.678;13.314;2024-03-02T08:58:53;9.64;96.84
68804;SHT31;55787;52.678;13.314;2024-03-02T09:01:19;9.73;96.21
68804;SHT31;55787;52.678;13.314;2024-03-02T09:03:46;9.70;95.88
68804;SHT31;55787;52.678;13.314;2024-03-02T09:06:13;9.66;95.67
68804;SHT31;55787;52.678;13.314;2024-03-02T09:08:40;9.69;95.85
68804;SHT31;55787;52.678;13.314;2024-03-02T09:11:07;9.64;95.78
68804;SHT31;55787;52.678;13.314;2024-03-02T09:13:34;9.63;95.88
68804;SHT31;55787;52.678;13.314;2024-03-02T09:16:01;9.67;95.75
68804;SHT31;55787;52.678;13.314;2024-03-02T09:18:27;9.67;95.58
68804;SHT31;55787;52.678;13.314;2024-03-02T09:20:54;9.66;95.75
68804;SHT31;55787;52.678;13.314;2024-03-02T09:23:21;9.67;95.97
68804;SHT31;55787;52.678;13.314;2024-03-02T09:25:47;9.79;94.85
68804;SHT31;55787;52.678;13.314;2024-03-02T09:28:17;9.80;94.38
68804;SHT31;55787;52.678;13.314;2024-03-02T09:30:44;9.73;94.45
68804;SHT31;55787;52.678;13.314;2024-03-02T09:33:11;9.69;94.59
68804;SHT31;55787;52.678;13.314;2024-03-02T09:35:41;9.72;94.81
68804;SHT31;55787;52.678;13.314;2024-03-02T09:38:07;9.73;94.86
68804;SHT31;55787;52.678;13.314;2024-03-02T09:40:34;9.87;94.00
68804;SHT31;55787;52.678;13.314;2024-03-02T09:43:01;9.93;93.68
68804;SHT31;55787;52.678;13.314;2024-03-02T09:45:29;9.93;93.33
68804;SHT31;55787;52.678;13.314;2024-03-02T09:47:56;9.95;93.21
68804;SHT31;55787;52.678;13.314;2024-03-02T09:50:23;10.00;93.26
68804;SHT31;55787;52.678;13.314;2024-03-02T09:52:49;10.15;93.24
68804;SHT31;55787;52.678;13.314;2024-03-02T09:55:19;10.20;92.36
68804;SHT31;55787;52.678;13.314;2024-03-02T09:57:48;10.10;92.20
68804;SHT31;55787;52.678;13.314;2024-03-02T10:00:16;10.38;91.92
68804;SHT31;55787;52.678;13.314;2024-03-02T10:02:43;10.61;91.89
68804;SHT31;55787;52.678;13.314;2024-03-02T10:05:10;10.80;90.17
68804;SHT31;55787;52.678;13.314;2024-03-02T10:07:38;10.91;89.95
68804;SHT31;55787;52.678;13.314;2024-03-02T10:10:15;11.07;89.31
68804;SHT31;55787;52.678;13.314;2024-03-02T10:12:42;11.19;88.64
68804;SHT31;55787;52.678;13.314;2024-03-02T10:15:08;11.30;87.92
68804;SHT31;55787;52.678;13.314;2024-03-02T10:17:36;11.40;88.73
68804;SHT31;55787;52.678;13.314;2024-03-02T10:20:22;11.54;87.33
68804;SHT31;55787;52.678;13.314;2024-03-02T10:22:52;11.61;86.53
68804;SHT31;55787;52.678;13.314;2024-03-02T10:25:32;11.75;86.64
68804;SHT31;55787;52.678;13.314;2024-03-02T10:28:02;11.84;86.37
68804;SHT31;55787;52.678;13.314;2024-03-02T10:30:35;11.99;84.36
68804;SHT31;55787;52.678;13.314;2024-03-02T10:33:02;12.22;84.39
68804;SHT31;55787;52.678;13.314;2024-03-02T10:35:30;12.23;83.31
68804;SHT31;55787;52.678;13.314;2024-03-02T10:38:04;12.37;82.31
68804;SHT31;55787;52.678;13.314;2024-03-02T10:40:31;12.44;82.54
68804;SHT31;55787;52.678;13.314;2024-03-02T10:42:59;12.49;83.07
68804;SHT31;55787;52.678;13.314;2024-03-02T10:45:30;12.52;81.91
68804;SHT31;55787;52.678;13.314;2024-03-02T10:47:56;12.64;81.83
68804;SHT31;55787;52.678;13.314;2024-03-02T10:50:24;12.77;81.65
68804;SHT31;55787;52.678;13.314;2024-03-02T10:52:51;12.65;81.01
68804;SHT31;55787;52.678;13.314;2024-03-02T10:55:17;12.71;81.50
68804;SHT31;55787;52.678;13.314;2024-03-02T10:57:51;12.80;81.11
68804;SHT31;55787;52.678;13.314;2024-03-02T11:00:18;13.07;81.48
68804;SHT31;55787;52.678;13.314;2024-03-02T11:02:52;13.36;78.66
68804;SHT31;55787;52.678;13.314;2024-03-02T11:05:26;13.70;78.75
68804;SHT31;55787;52.678;13.314;2024-03-02T11:08:00;13.82;76.98
68804;SHT31;55787;52.678;13.314;2024-03-02T11:10:51;13.97;76.39
68804;SHT31;55787;52.678;13.314;2024-03-02T11:13:41;13.59;77.99
68804;SHT31;55787;52.678;13.314;2024-03-02T11:16:12;13.73;77.25
68804;SHT31;55787;52.678;13.314;2024-03-02T11:18:43;13.97;76.25
68804;SHT31;55787;52.678;13.314;2024-03-02T11:21:10;13.96;75.46
68804;SHT31;55787;52.678;13.314;2024-03-02T11:23:37;13.90;75.69
68804;SHT31;55787;52.678;13.314;2024-03-02T11:26:20;13.89;76.42
68804;SHT31;55787;52.678;13.314;2024-03-02T11:28:47;13.94;76.69
68804;SHT31;55787;52.678;13.314;2024-03-02T11:31:14;14.17;73.92
68804;SHT31;55787;52.678;13.314;2024-03-02T11:33:40;14.46;72.79
68804;SHT31;55787;52.678;13.314;2024-03-02T11:36:07;14.48;73.12
68804;SHT31;55787;52.678;13.314;2024-03-02T11:38:36;14.09;73.55
68804;SHT31;55787;52.678;13.314;2024-03-02T11:41:06;14.81;73.05
68804;SHT31;55787;52.678;13.314;2024-03-02T11:43:38;15.54;71.13
68804;SHT31;55787;52.678;13.314;2024-03-02T11:46:07;15.41;70.63
68804;SHT31;55787;52.678;13.314;2024-03-02T11:48:36;15.32;69.80
68804;SHT31;55787;52.678;13.314;2024-03-02T11:51:03;15.14;69.72
68804;SHT31;55787;52.678;13.314;2024-03-02T11:53:30;15.00;69.90
68804;SHT31;55787;52.678;13.314;2024-03-02T11:56:02;14.79;70.51
68804;SHT31;55787;52.678;13.314;2024-03-02T11:58:28;14.45;71.82
68804;SHT31;55787;52.678;13.314;2024-03-02T12:00:56;14.38;73.22
68804;SHT31;55787;52.678;13.314;2024-03-02T12:03:24;14.16;73.31
68804;SHT31;55787;52.678;13.314;2024-03-02T12:05:53;14.34;73.04
68804;SHT31;55787;52.678;13.314;2024-03-02T12:08:20;14.46;71.93
68804;SHT31;55787;52.678;13.314;2024-03-02T12:11:01;14.57;71.27
68804;SHT31;55787;52.678;13.314;2024-03-02T12:13:30;14.23;71.29
68804;SHT31;55787;52.678;13.314;2024-03-02T12:15:57;13.97;72.94
68804;SHT31;55787;52.678;13.314;2024-03-02T12:18:25;13.94;72.45
68804;SHT31;55787;52.678;13.314;2024-03-02T12:20:52;14.06;73.08
68804;SHT31;55787;52.678;13.314;2024-03-02T12:23:22;14.28;72.60
68804;SHT31;55787;52.678;13.314;2024-03-02T12:25:49;13.67;72.40
68804;SHT31;55787;52.678;13.314;2024-03-02T12:28:16;14.17;74.06
68804;SHT31;55787;52.678;13.314;2024-03-02T12:30:44;14.68;70.62
68804;SHT31;55787;52.678;13.314;2024-03-02T12:33:11;15.16;69.39
68804;SHT31;55787;52.678;13.314;2024-03-02T12:35:38;15.22;68.55
68804;SHT31;55787;52.678;13.314;2024-03-02T12:38:04;15.33;67.66
68804;SHT31;55787;52.678;13.314;2024-03-02T12:40:31;15.23;68.23
68804;SHT31;55787;52.678;13.314;2024-03-02T12:42:58;15.41;68.65
68804;SHT31;55787;52.678;13.314;2024-03-02T12:45:25;14.11;70.00
68804;SHT31;55787;52.678;13.314;2024-03-02T12:47:52;14.67;69.96
68804;SHT31;55787;52.678;13.314;2024-03-02T12:50:20;15.46;67.36
68804;SHT31;55787;52.678;13.314;2024-03-02T12:52:54;16.56;65.11
68804;SHT31;55787;52.678;13.314;2024-03-02T12:55:21;17.11;61.91
68804;SHT31;55787;52.678;13.314;2024-03-02T12:57:52;16.99;63.54
68804;SHT31;55787;52.678;13.314;2024-03-02T13:00:20;15.02;68.33
68804;SHT31;55787;52.678;13.314;2024-03-02T13:02:49;16.87;64.32
68804;SHT31;55787;52.678;13.314;2024-03-02T13:05:18;17.15;61.31
68804;SHT31;55787;52.678;13.314;2024-03-02T13:07:47;17.12;62.38
68804;SHT31;55787;52.678;13.314;2024-03-02T13:10:14;17.38;62.22
68804;SHT31;55787;52.678;13.314;2024-03-02T13:12:40;17.34;60.99
68804;SHT31;55787;52.678;13.314;2024-03-02T13:15:08;17.43;61.37
68804;SHT31;55787;52.678;13.314;2024-03-02T13:17:35;17.53;60.41
68804;SHT31;55787;52.678;13.314;2024-03-02T13:20:04;15.98;61.64
68804;SHT31;55787;52.678;13.314;2024-03-02T13:22:34;16.57;63.43
68804;SHT31;55787;52.678;13.314;2024-03-02T13:25:02;16.71;62.59
68804;SHT31;55787;52.678;13.314;2024-03-02T13:27:33;15.71;63.81
68804;SHT31;55787;52.678;13.314;2024-03-02T13:30:01;16.40;63.37
68804;SHT31;55787;52.678;13.314;2024-03-02T13:32:29;16.50;63.06
68804;SHT31;55787;52.678;13.314;2024-03-02T13:34:55;16.53;61.60
68804;SHT31;55787;52.678;13.314;2024-03-02T13:37:22;16.38;61.07
68804;SHT31;55787;52.678;13.314;2024-03-02T13:39:49;16.45;61.38
68804;SHT31;55787;52.678;13.314;2024-03-02T13:42:16;16.63;60.96
68804;SHT31;55787;52.678;13.314;2024-03-02T13:44:43;16.55;61.65
68804;SHT31;55787;52.678;13.314;2024-03-02T13:47:12;16.46;61.63
68804;SHT31;55787;52.678;13.314;2024-03-02T13:49:38;16.25;60.88
68804;SHT31;55787;52.678;13.314;2024-03-02T13:52:10;15.94;61.25
68804;SHT31;55787;52.678;13.314;2024-03-02T13:54:38;15.71;62.42
68804;SHT31;55787;52.678;13.314;2024-03-02T13:57:07;15.44;64.06
68804;SHT31;55787;52.678;13.314;2024-03-02T13:59:34;15.53;63.41
68804;SHT31;55787;52.678;13.314;2024-03-02T14:02:02;15.50;63.20
68804;SHT31;55787;52.678;13.314;2024-03-02T14:04:33;15.32;63.86
68804;SHT31;55787;52.678;13.314;2024-03-02T14:07:01;15.34;64.79
68804;SHT31;55787;52.678;13.314;2024-03-02T14:09:28;15.34;63.50
68804;SHT31;55787;52.678;13.314;2024-03-02T14:11:56;15.27;64.07
68804;SHT31;55787;52.678;13.314;2024-03-02T14:14:23;15.18;64.55
68804;SHT31;55787;52.678;13.314;2024-03-02T14:16:49;15.06;63.01
68804;SHT31;55787;52.678;13.314;2024-03-02T14:19:16;14.91;63.06
68804;SHT31;55787;52.678;13.314;2024-03-02T14:21:43;14.85;63.56
68804;SHT31;55787;52.678;13.314;2024-03-02T14:24:09;14.93;64.46
68804;SHT31;55787;52.678;13.314;2024-03-02T14:26:36;15.03;64.29
68804;SHT31;55787;52.678;13.314;2024-03-02T14:29:03;14.98;63.46
68804;SHT31;55787;52.678;13.314;2024-03-02T14:31:31;14.86;64.20
68804;SHT31;55787;52.678;13.314;2024-03-02T14:33:58;14.83;64.25
68804;SHT31;55787;52.678;13.314;2024-03-02T14:36:26;14.79;63.81
68804;SHT31;55787;52.678;13.314;2024-03-02T14:38:54;14.69;63.94
68804;SHT31;55787;52.678;13.314;2024-03-02T14:41:22;14.64;64.55
68804;SHT31;55787;52.678;13.314;2024-03-02T14:43:51;14.60;64.93
68804;SHT31;55787;52.678;13.314;2024-03-02T14:46:18;14.73;64.36
68804;SHT31;55787;52.678;13.314;2024-03-02T14:48:45;14.82;63.54
68804;SHT31;55787;52.678;13.314;2024-03-02T14:51:13;14.89;63.93
68804;SHT31;55787;52.678;13.314;2024-03-02T14:53:40;14.91;64.94
68804;SHT31;55787;52.678;13.314;2024-03-02T14:56:06;15.07;64.78
68804;SHT31;55787;52.678;13.314;2024-03-02T14:58:33;15.10;63.54
68804;SHT31;55787;52.678;13.314;2024-03-02T15:01:01;15.09;63.89
68804;SHT31;55787;52.678;13.314;2024-03-02T15:03:28;15.12;63.16
68804;SHT31;55787;52.678;13.314;2024-03-02T15:05:55;15.13;62.51
68804;SHT31;55787;52.678;13.314;2024-03-02T15:08:23;15.36;62.64
68804;SHT31;55787;52.678;13.314;2024-03-02T15:10:50;15.53;61.66
68804;SHT31;55787;52.678;13.314;2024-03-02T15:13:16;15.49;61.98
68804;SHT31;55787;52.678;13.314;2024-03-02T15:15:43;15.10;62.60
68804;SHT31;55787;52.678;13.314;2024-03-02T15:18:10;14.95;63.51
68804;SHT31;55787;52.678;13.314;2024-03-02T15:20:36;14.72;64.08
68804;SHT31;55787;52.678;13.314;2024-03-02T15:23:03;14.52;64.01
68804;SHT31;55787;52.678;13.314;2024-03-02T15:25:30;14.72;64.30
68804;SHT31;55787;52.678;13.314;2024-03-02T15:27:56;14.92;63.75
68804;SHT31;55787;52.678;13.314;2024-03-02T15:30:23;15.16;62.92